sensor_id;sensor_type;location;lat;lon;timestamp;pressure;altitude;pressure_sealevel;temperature;humidity
73242;BME280;65659;49.234;-2.094;2023-04-08T00:00:14;101078.86;;;13.47;45.74
73242;BME280;65659;49.234;-2.094;2023-04-08T00:02:38;101079.52;;;13.39;45.94
73242;BME280;65659;49.234;-2.094;2023-04-08T00:05:05;101082.53;;;13.17;45.93
73242;BME280;65659;49.234;-2.094;2023-04-08T00:07:28;101081.61;;;13.52;45.74
73242;BME280;65659;49.234;-2.094;2023-04-08T00:09:53;101079.22;;;13.41;45.96
73242;BME280;65659;49.234;-2.094;2023-04-08T00:12:18;101079.94;;;13.16;46.05
73242;BME280;65659;49.234;-2.094;2023-04-08T00:14:44;101079.09;;;13.47;45.54
73242;BME280;65659;49.234;-2.094;2023-04-08T00:17:09;101075.63;;;13.86;45.31
73242;BME280;65659;49.234;-2.094;2023-04-08T00:19:35;101080.60;;;13.70;45.16
73242;BME280;65659;49.234;-2.094;2023-04-08T00:22:00;101078.22;;;13.98;45.06
73242;BME280;65659;49.234;-2.094;2023-04-08T00:24:25;101076.68;;;13.55;44.96
73242;BME280;65659;49.234;-2.094;2023-04-08T00:26:51;101078.26;;;13.81;44.92
73242;BME280;65659;49.234;-2.094;2023-04-08T00:29:16;101078.08;;;13.75;44.99
73242;BME280;65659;49.234;-2.094;2023-04-08T00:31:41;101078.45;;;13.58;44.80
73242;BME280;65659;49.234;-2.094;2023-04-08T00:34:06;101078.95;;;13.86;44.75
73242;BME280;65659;49.234;-2.094;2023-04-08T00:36:31;101076.36;;;13.85;44.74
73242;BME280;65659;49.234;-2.094;2023-04-08T00:38:56;101074.95;;;14.09;44.75
73242;BME280;65659;49.234;-2.094;2023-04-08T00:41:22;101077.44;;;13.62;44.68
73242;BME280;65659;49.234;-2.094;2023-04-08T00:43:47;101075.84;;;13.84;44.74
73242;BME280;65659;49.234;-2.094;2023-04-08T00:46:12;101075.16;;;14.09;44.78
73242;BME280;65659;49.234;-2.094;2023-04-08T00:48:37;101071.33;;;13.63;44.75
73242;BME280;65659;49.234;-2.094;2023-04-08T00:51:03;101074.52;;;13.87;44.78
73242;BME280;65659;49.234;-2.094;2023-04-08T00:53:33;101077.61;;;13.61;44.85
73242;BME280;65659;49.234;-2.094;2023-04-08T00:55:53;101082.60;;;13.85;44.82
73242;BME280;65659;49.234;-2.094;2023-04-08T00:58:18;101086.93;;;13.62;44.80
73242;BME280;65659;49.234;-2.094;2023-04-08T01:00:51;101085.29;;;13.79;44.88
73242;BME280;65659;49.234;-2.094;2023-04-08T01:03:15;101088.24;;;13.63;44.78
73242;BME280;65659;49.234;-2.094;2023-04-08T01:05:41;101089.91;;;13.86;44.78
73242;BME280;65659;49.234;-2.094;2023-04-08T01:08:01;101091.39;;;13.57;44.81
73242;BME280;65659;49.234;-2.094;2023-04-08T01:10:28;101090.59;;;13.82;44.81
73242;BME280;65659;49.234;-2.094;2023-04-08T01:12:53;101085.14;;;13.53;44.84
73242;BME280;65659;49.234;-2.094;2023-04-08T01:15:15;101085.63;;;13.75;44.87
73242;BME280;65659;49.234;-2.094;2023-04-08T01:17:43;101088.74;;;13.72;44.89
73242;BME280;65659;49.234;-2.094;2023-04-08T01:20:07;101091.57;;;13.71;44.94
73242;BME280;65659;49.234;-2.094;2023-04-08T01:22:40;101091.23;;;13.44;44.94
73242;BME280;65659;49.234;-2.094;2023-04-08T01:25:04;101091.79;;;13.89;44.92
73242;BME280;65659;49.234;-2.094;2023-04-08T01:27:21;101093.21;;;13.60;44.92
73242;BME280;65659;49.234;-2.094;2023-04-08T01:29:47;101094.06;;;13.56;44.90
73242;BME280;65659;49.234;-2.094;2023-04-08T01:32:12;101089.72;;;13.82;44.89
73242;BME280;65659;49.234;-2.094;2023-04-08T01:34:37;101096.61;;;13.34;44.83
73242;BME280;65659;49.234;-2.094;2023-04-08T01:37:03;101094.35;;;13.57;44.78
73242;BME280;65659;49.234;-2.094;2023-04-08T01:39:28;101091.07;;;13.54;44.74
73242;BME280;65659;49.234;-2.094;2023-04-08T01:41:53;101084.69;;;13.56;44.63
73242;BME280;65659;49.234;-2.094;2023-04-08T01:44:22;101082.15;;;13.79;44.54
73242;BME280;65659;49.234;-2.094;2023-04-08T01:46:44;101086.08;;;13.73;44.57
73242;BME280;65659;49.234;-2.094;2023-04-08T01:49:10;101085.54;;;13.49;44.55
73242;BME280;65659;49.234;-2.094;2023-04-08T01:51:36;101088.96;;;13.26;44.52
73242;BME280;65659;49.234;-2.094;2023-04-08T01:54:00;101085.83;;;13.59;44.67
73242;BME280;65659;49.234;-2.094;2023-04-08T01:56:28;101087.13;;;13.64;44.63
73242;BME280;65659;49.234;-2.094;2023-04-08T01:58:51;101086.13;;;13.67;44.55
73242;BME280;65659;49.234;-2.094;2023-04-08T02:01:17;101084.58;;;13.66;44.47
73242;BME280;65659;49.234;-2.094;2023-04-08T02:03:42;101079.97;;;13.66;44.44
73242;BME280;65659;49.234;-2.094;2023-04-08T02:06:05;101082.76;;;13.17;44.40
73242;BME280;65659;49.234;-2.094;2023-04-08T02:08:32;101083.18;;;13.63;44.42
73242;BME280;65659;49.234;-2.094;2023-04-08T02:10:55;101087.50;;;13.62;44.36
73242;BME280;65659;49.234;-2.094;2023-04-08T02:13:21;101091.36;;;13.14;44.25
73242;BME280;65659;49.234;-2.094;2023-04-08T02:15:56;101088.65;;;13.62;44.13
73242;BME280;65659;49.234;-2.094;2023-04-08T02:18:14;101091.55;;;13.30;44.06
73242;BME280;65659;49.234;-2.094;2023-04-08T02:20:37;101091.80;;;13.07;44.06
73242;BME280;65659;49.234;-2.094;2023-04-08T02:23:05;101092.78;;;13.30;43.88
73242;BME280;65659;49.234;-2.094;2023-04-08T02:25:28;101095.43;;;13.26;43.86
73242;BME280;65659;49.234;-2.094;2023-04-08T02:27:52;101095.15;;;13.26;43.82
73242;BME280;65659;49.234;-2.094;2023-04-08T02:30:17;101094.60;;;13.24;43.86
73242;BME280;65659;49.234;-2.094;2023-04-08T02:32:43;101095.74;;;13.51;43.83
73242;BME280;65659;49.234;-2.094;2023-04-08T02:35:09;101100.00;;;13.51;43.79
73242;BME280;65659;49.234;-2.094;2023-04-08T02:37:32;101100.35;;;13.50;43.78
73242;BME280;65659;49.234;-2.094;2023-04-08T02:39:58;101100.35;;;13.26;43.78
73242;BME280;65659;49.234;-2.094;2023-04-08T02:42:22;101101.91;;;13.25;43.84
73242;BME280;65659;49.234;-2.094;2023-04-08T02:44:47;101103.03;;;13.21;43.79
73242;BME280;65659;49.234;-2.094;2023-04-08T02:47:13;101106.66;;;13.47;43.78
73242;BME280;65659;49.234;-2.094;2023-04-08T02:49:38;101107.57;;;12.95;43.76
73242;BME280;65659;49.234;-2.094;2023-04-08T02:52:04;101108.88;;;13.21;43.73
73242;BME280;65659;49.234;-2.094;2023-04-08T02:54:30;101112.83;;;13.22;43.71
73242;BME280;65659;49.234;-2.094;2023-04-08T02:56:55;101112.80;;;13.44;43.78
73242;BME280;65659;49.234;-2.094;2023-04-08T02:59:20;101118.65;;;13.16;43.87
73242;BME280;65659;49.234;-2.094;2023-04-08T03:01:45;101117.84;;;13.40;43.87
73242;BME280;65659;49.234;-2.094;2023-04-08T03:04:10;101116.13;;;13.41;43.82
73242;BME280;65659;49.234;-2.094;2023-04-08T03:06:35;101117.06;;;13.36;43.81
73242;BME280;65659;49.234;-2.094;2023-04-08T03:09:00;101114.61;;;13.39;43.72
73242;BME280;65659;49.234;-2.094;2023-04-08T03:11:25;101116.08;;;13.34;43.72
73242;BME280;65659;49.234;-2.094;2023-04-08T03:13:50;101117.19;;;13.35;43.62
73242;BME280;65659;49.234;-2.094;2023-04-08T03:16:15;101125.97;;;13.30;43.75
73242;BME280;65659;49.234;-2.094;2023-04-08T03:18:41;101123.53;;;13.30;43.74
73242;BME280;65659;49.234;-2.094;2023-04-08T03:21:06;101120.70;;;13.29;43.78
73242;BME280;65659;49.234;-2.094;2023-04-08T03:23:32;101119.03;;;13.28;43.83
73242;BME280;65659;49.234;-2.094;2023-04-08T03:25:57;101119.20;;;13.28;43.85
73242;BME280;65659;49.234;-2.094;2023-04-08T03:28:22;101118.99;;;13.28;43.86
73242;BME280;65659;49.234;-2.094;2023-04-08T03:30:47;101119.98;;;13.22;43.92
73242;BME280;65659;49.234;-2.094;2023-04-08T03:33:12;101123.56;;;13.25;43.86
73242;BME280;65659;49.234;-2.094;2023-04-08T03:35:38;101129.92;;;13.24;43.77
73242;BME280;65659;49.234;-2.094;2023-04-08T03:38:03;101128.19;;;13.21;43.76
73242;BME280;65659;49.234;-2.094;2023-04-08T03:40:28;101129.38;;;13.16;43.79
73242;BME280;65659;49.234;-2.094;2023-04-08T03:42:53;101127.24;;;13.13;43.80
73242;BME280;65659;49.234;-2.094;2023-04-08T03:45:18;101126.17;;;12.88;43.80
73242;BME280;65659;49.234;-2.094;2023-04-08T03:47:43;101127.64;;;12.86;43.87
73242;BME280;65659;49.234;-2.094;2023-04-08T03:50:11;101128.83;;;12.86;43.91
73242;BME280;65659;49.234;-2.094;2023-04-08T03:52:33;101127.53;;;13.12;43.90
73242;BME280;65659;49.234;-2.094;2023-04-08T03:54:58;101125.01;;;13.11;43.89
73242;BME280;65659;49.234;-2.094;2023-04-08T03:57:24;101126.42;;;13.08;43.92
73242;BME280;65659;49.234;-2.094;2023-04-08T03:59:49;101126.26;;;13.08;43.92
73242;BME280;65659;49.234;-2.094;2023-04-08T04:02:15;101128.09;;;13.06;43.95
73242;BME280;65659;49.234;-2.094;2023-04-08T04:04:39;101128.36;;;13.06;43.98
73242;BME280;65659;49.234;-2.094;2023-04-08T04:07:04;101127.73;;;13.03;44.05
73242;BME280;65659;49.234;-2.094;2023-04-08T04:09:30;101126.78;;;13.02;44.09
73242;BME280;65659;49.234;-2.094;2023-04-08T04:11:55;101128.39;;;12.98;44.16
73242;BME280;65659;49.234;-2.094;2023-04-08T04:14:20;101131.17;;;12.97;44.16
73242;BME280;65659;49.234;-2.094;2023-04-08T04:16:46;101130.59;;;12.96;44.17
73242;BME280;65659;49.234;-2.094;2023-04-08T04:19:11;101132.21;;;12.94;44.23
73242;BME280;65659;49.234;-2.094;2023-04-08T04:21:36;101134.37;;;12.92;44.25
73242;BME280;65659;49.234;-2.094;2023-04-08T04:24:02;101135.06;;;12.92;44.26
73242;BME280;65659;49.234;-2.094;2023-04-08T04:26:27;101137.12;;;12.90;44.25
73242;BME280;65659;49.234;-2.094;2023-04-08T04:28:53;101142.05;;;13.11;44.29
73242;BME280;65659;49.234;-2.094;2023-04-08T04:31:18;101143.96;;;12.87;44.32
73242;BME280;65659;49.234;-2.094;2023-04-08T04:33:43;101144.94;;;12.84;44.31
73242;BME280;65659;49.234;-2.094;2023-04-08T04:36:08;101148.80;;;12.84;44.35
73242;BME280;65659;49.234;-2.094;2023-04-08T04:38:34;101146.66;;;12.82;44.32
73242;BME280;65659;49.234;-2.094;2023-04-08T04:40:59;101146.22;;;12.83;44.36
73242;BME280;65659;49.234;-2.094;2023-04-08T04:43:28;101148.56;;;12.82;44.36
73242;BME280;65659;49.234;-2.094;2023-04-08T04:45:50;101147.75;;;12.82;44.34
73242;BME280;65659;49.234;-2.094;2023-04-08T04:48:15;101149.96;;;12.85;44.32
73242;BME280;65659;49.234;-2.094;2023-04-08T04:50:40;101149.70;;;12.84;44.34
73242;BME280;65659;49.234;-2.094;2023-04-08T04:53:06;101151.71;;;12.84;44.33
73242;BME280;65659;49.234;-2.094;2023-04-08T04:55:31;101153.96;;;12.81;44.42
73242;BME280;65659;49.234;-2.094;2023-04-08T04:57:56;101157.03;;;12.84;44.41
73242;BME280;65659;49.234;-2.094;2023-04-08T05:00:22;101157.44;;;12.59;44.40
73242;BME280;65659;49.234;-2.094;2023-04-08T05:02:47;101157.26;;;12.81;44.43
73242;BME280;65659;49.234;-2.094;2023-04-08T05:05:13;101157.86;;;12.78;44.43
73242;BME280;65659;49.234;-2.094;2023-04-08T05:07:38;101158.14;;;12.53;44.41
73242;BME280;65659;49.234;-2.094;2023-04-08T05:10:03;101158.85;;;12.77;44.47
73242;BME280;65659;49.234;-2.094;2023-04-08T05:12:28;101165.18;;;12.75;44.54
73242;BME280;65659;49.234;-2.094;2023-04-08T05:14:53;101168.07;;;12.72;44.66
73242;BME280;65659;49.234;-2.094;2023-04-08T05:17:19;101175.21;;;12.70;44.64
73242;BME280;65659;49.234;-2.094;2023-04-08T05:19:44;101178.97;;;12.66;44.71
73242;BME280;65659;49.234;-2.094;2023-04-08T05:22:09;101184.07;;;12.68;44.68
73242;BME280;65659;49.234;-2.094;2023-04-08T05:24:34;101182.95;;;12.70;44.63
73242;BME280;65659;49.234;-2.094;2023-04-08T05:26:59;101182.07;;;12.68;44.69
73242;BME280;65659;49.234;-2.094;2023-04-08T05:29:25;101186.20;;;12.67;44.68
73242;BME280;65659;49.234;-2.094;2023-04-08T05:31:50;101192.86;;;12.67;44.63
73242;BME280;65659;49.234;-2.094;2023-04-08T05:34:16;101193.06;;;12.71;44.59
73242;BME280;65659;49.234;-2.094;2023-04-08T05:36:41;101193.17;;;12.73;44.55
73242;BME280;65659;49.234;-2.094;2023-04-08T05:39:06;101194.44;;;12.75;44.60
73242;BME280;65659;49.234;-2.094;2023-04-08T05:41:32;101195.71;;;12.74;44.67
73242;BME280;65659;49.234;-2.094;2023-04-08T05:43:57;101197.61;;;13.00;44.69
73242;BME280;65659;49.234;-2.094;2023-04-08T05:46:22;101199.35;;;12.78;44.69
73242;BME280;65659;49.234;-2.094;2023-04-08T05:48:48;101199.66;;;12.79;44.63
73242;BME280;65659;49.234;-2.094;2023-04-08T05:53:38;101197.13;;;12.83;44.54
73242;BME280;65659;49.234;-2.094;2023-04-08T05:56:08;101201.73;;;12.89;44.42
73242;BME280;65659;49.234;-2.094;2023-04-08T05:58:28;101203.12;;;12.90;44.36
73242;BME280;65659;49.234;-2.094;2023-04-08T06:00:53;101205.99;;;12.89;44.34
73242;BME280;65659;49.234;-2.094;2023-04-08T06:03:19;101208.09;;;12.95;44.23
73242;BME280;65659;49.234;-2.094;2023-04-08T06:05:47;101208.51;;;12.75;44.16
73242;BME280;65659;49.234;-2.094;2023-04-08T06:08:09;101209.01;;;13.03;44.11
73242;BME280;65659;49.234;-2.094;2023-04-08T06:10:34;101212.50;;;13.07;44.17
73242;BME280;65659;49.234;-2.094;2023-04-08T06:12:59;101214.60;;;13.12;44.15
73242;BME280;65659;49.234;-2.094;2023-04-08T06:15:31;101214.90;;;13.14;44.18
73242;BME280;65659;49.234;-2.094;2023-04-08T06:17:49;101213.25;;;13.20;44.15
73242;BME280;65659;49.234;-2.094;2023-04-08T06:20:15;101218.24;;;13.27;44.13
73242;BME280;65659;49.234;-2.094;2023-04-08T06:22:39;101220.55;;;13.33;44.04
73242;BME280;65659;49.234;-2.094;2023-04-08T06:25:05;101220.58;;;13.20;43.97
73242;BME280;65659;49.234;-2.094;2023-04-08T06:27:30;101220.61;;;13.55;43.88
73242;BME280;65659;49.234;-2.094;2023-04-08T06:29:55;101223.44;;;13.14;43.88
73242;BME280;65659;49.234;-2.094;2023-04-08T06:32:20;101224.88;;;13.43;43.85
73242;BME280;65659;49.234;-2.094;2023-04-08T06:34:45;101230.57;;;13.48;43.85
73242;BME280;65659;49.234;-2.094;2023-04-08T06:37:11;101231.42;;;13.56;43.86
73242;BME280;65659;49.234;-2.094;2023-04-08T06:39:36;101234.70;;;13.43;43.84
73242;BME280;65659;49.234;-2.094;2023-04-08T06:42:01;101234.40;;;13.75;43.86
73242;BME280;65659;49.234;-2.094;2023-04-08T06:44:26;101236.56;;;13.61;43.84
73242;BME280;65659;49.234;-2.094;2023-04-08T06:46:51;101239.55;;;13.68;43.83
73242;BME280;65659;49.234;-2.094;2023-04-08T06:49:17;101239.45;;;13.79;43.76
73242;BME280;65659;49.234;-2.094;2023-04-08T06:51:42;101240.63;;;13.89;43.78
73242;BME280;65659;49.234;-2.094;2023-04-08T06:54:07;101245.34;;;14.22;43.57
73242;BME280;65659;49.234;-2.094;2023-04-08T06:56:33;101246.04;;;14.12;43.50
73242;BME280;65659;49.234;-2.094;2023-04-08T06:58:58;101248.89;;;14.05;43.39
73242;BME280;65659;49.234;-2.094;2023-04-08T07:01:23;101250.80;;;14.39;43.41
73242;BME280;65659;49.234;-2.094;2023-04-08T07:03:48;101253.49;;;14.30;43.36
73242;BME280;65659;49.234;-2.094;2023-04-08T07:06:13;101255.70;;;14.13;43.32
73242;BME280;65659;49.234;-2.094;2023-04-08T07:08:39;101257.96;;;14.70;43.43
73242;BME280;65659;49.234;-2.094;2023-04-08T07:11:04;101254.84;;;14.80;43.39
73242;BME280;65659;49.234;-2.094;2023-04-08T07:13:29;101253.75;;;14.88;43.44
73242;BME280;65659;49.234;-2.094;2023-04-08T07:15:54;101256.32;;;14.68;43.22
73242;BME280;65659;49.234;-2.094;2023-04-08T07:18:19;101256.60;;;14.98;43.05
73242;BME280;65659;49.234;-2.094;2023-04-08T07:20:45;101259.30;;;14.61;42.83
73242;BME280;65659;49.234;-2.094;2023-04-08T07:23:10;101266.16;;;14.88;42.72
73242;BME280;65659;49.234;-2.094;2023-04-08T07:25:35;101269.76;;;14.72;42.54
73242;BME280;65659;49.234;-2.094;2023-04-08T07:28:00;101272.50;;;15.23;42.21
73242;BME280;65659;49.234;-2.094;2023-04-08T07:30:25;101276.22;;;14.79;41.95
73242;BME280;65659;49.234;-2.094;2023-04-08T07:32:50;101277.44;;;14.80;41.54
73242;BME280;65659;49.234;-2.094;2023-04-08T07:35:16;101278.80;;;14.84;41.15
73242;BME280;65659;49.234;-2.094;2023-04-08T07:37:40;101278.46;;;14.65;41.07
73242;BME280;65659;49.234;-2.094;2023-04-08T07:40:23;101280.76;;;15.38;41.00
73242;BME280;65659;49.234;-2.094;2023-04-08T07:42:31;101283.35;;;14.91;40.85
73242;BME280;65659;49.234;-2.094;2023-04-08T07:44:56;101285.60;;;14.92;40.71
73242;BME280;65659;49.234;-2.094;2023-04-08T07:47:21;101287.79;;;14.94;40.53
73242;BME280;65659;49.234;-2.094;2023-04-08T07:49:46;101291.36;;;14.71;40.28
73242;BME280;65659;49.234;-2.094;2023-04-08T07:52:11;101296.47;;;14.96;39.93
73242;BME280;65659;49.234;-2.094;2023-04-08T07:54:36;101302.54;;;15.03;39.87
73242;BME280;65659;49.234;-2.094;2023-04-08T07:57:01;101304.35;;;15.01;39.72
73242;BME280;65659;49.234;-2.094;2023-04-08T07:59:26;101309.32;;;15.02;39.14
73242;BME280;65659;49.234;-2.094;2023-04-08T08:01:51;101310.67;;;15.02;39.08
73242;BME280;65659;49.234;-2.094;2023-04-08T08:04:16;101313.20;;;15.07;39.15
73242;BME280;65659;49.234;-2.094;2023-04-08T08:06:41;101315.68;;;15.10;38.94
73242;BME280;65659;49.234;-2.094;2023-04-08T08:09:07;101317.49;;;14.87;38.40
73242;BME280;65659;49.234;-2.094;2023-04-08T08:11:32;101316.29;;;15.16;38.41
73242;BME280;65659;49.234;-2.094;2023-04-08T08:13:57;101315.61;;;14.97;38.42
73242;BME280;65659;49.234;-2.094;2023-04-08T08:16:22;101323.42;;;15.28;38.42
73242;BME280;65659;49.234;-2.094;2023-04-08T08:18:47;101325.18;;;15.31;37.82
73242;BME280;65659;49.234;-2.094;2023-04-08T08:21:12;101326.64;;;15.12;37.51
73242;BME280;65659;49.234;-2.094;2023-04-08T08:23:38;101325.36;;;15.17;37.37
73242;BME280;65659;49.234;-2.094;2023-04-08T08:26:06;101326.10;;;15.49;37.51
73242;BME280;65659;49.234;-2.094;2023-04-08T08:28:28;101326.05;;;15.53;37.56
73242;BME280;65659;49.234;-2.094;2023-04-08T08:30:53;101328.88;;;15.13;37.40
73242;BME280;65659;49.234;-2.094;2023-04-08T08:33:18;101326.57;;;15.46;37.15
73242;BME280;65659;49.234;-2.094;2023-04-08T08:35:43;101325.46;;;15.55;37.19
73242;BME280;65659;49.234;-2.094;2023-04-08T08:38:08;101325.85;;;15.62;36.78
73242;BME280;65659;49.234;-2.094;2023-04-08T08:40:33;101328.96;;;15.46;36.58
73242;BME280;65659;49.234;-2.094;2023-04-08T08:42:58;101326.98;;;15.77;35.71
73242;BME280;65659;49.234;-2.094;2023-04-08T08:45:23;101326.06;;;15.98;35.48
73242;BME280;65659;49.234;-2.094;2023-04-08T08:47:49;101326.26;;;16.05;35.62
73242;BME280;65659;49.234;-2.094;2023-04-08T08:50:25;101326.67;;;16.04;35.42
73242;BME280;65659;49.234;-2.094;2023-04-08T08:55:06;101326.10;;;15.68;35.78
73242;BME280;65659;49.234;-2.094;2023-04-08T08:57:29;101322.26;;;15.75;35.47
73242;BME280;65659;49.234;-2.094;2023-04-08T08:59:54;101324.17;;;15.85;35.35
73242;BME280;65659;49.234;-2.094;2023-04-08T09:02:24;101324.93;;;16.16;35.39
73242;BME280;65659;49.234;-2.094;2023-04-08T09:04:56;101324.21;;;15.95;35.78
73242;BME280;65659;49.234;-2.094;2023-04-08T09:07:11;101325.39;;;16.12;35.50
73242;BME280;65659;49.234;-2.094;2023-04-08T09:09:47;101325.40;;;16.16;35.44
73242;BME280;65659;49.234;-2.094;2023-04-08T09:12:03;101325.65;;;15.96;35.65
73242;BME280;65659;49.234;-2.094;2023-04-08T09:14:26;101325.02;;;16.29;35.40
73242;BME280;65659;49.234;-2.094;2023-04-08T09:16:52;101325.68;;;16.09;34.85
73242;BME280;65659;49.234;-2.094;2023-04-08T09:19:17;101331.53;;;16.38;34.82
73242;BME280;65659;49.234;-2.094;2023-04-08T09:21:42;101335.95;;;16.19;34.40
73242;BME280;65659;49.234;-2.094;2023-04-08T09:26:35;101332.86;;;16.75;33.61
73242;BME280;65659;49.234;-2.094;2023-04-08T09:29:02;101340.50;;;16.69;33.64
73242;BME280;65659;49.234;-2.094;2023-04-08T09:31:26;101344.73;;;16.75;33.50
73242;BME280;65659;49.234;-2.094;2023-04-08T09:33:53;101344.16;;;17.16;33.46
73242;BME280;65659;49.234;-2.094;2023-04-08T09:36:16;101344.38;;;16.87;34.06
73242;BME280;65659;49.234;-2.094;2023-04-08T09:38:41;101341.76;;;16.91;34.22
73242;BME280;65659;49.234;-2.094;2023-04-08T09:41:07;101342.06;;;17.22;34.63
73242;BME280;65659;49.234;-2.094;2023-04-08T09:43:36;101343.82;;;17.05;34.79
73242;BME280;65659;49.234;-2.094;2023-04-08T09:46:00;101347.62;;;17.11;34.77
73242;BME280;65659;49.234;-2.094;2023-04-08T09:48:26;101347.29;;;17.22;35.03
73242;BME280;65659;49.234;-2.094;2023-04-08T09:50:50;101346.88;;;17.29;34.49
73242;BME280;65659;49.234;-2.094;2023-04-08T09:55:40;101347.65;;;17.48;34.15
73242;BME280;65659;49.234;-2.094;2023-04-08T09:58:15;101350.91;;;17.50;33.95
73242;BME280;65659;49.234;-2.094;2023-04-08T10:00:33;101352.33;;;17.52;33.45
73242;BME280;65659;49.234;-2.094;2023-04-08T10:03:05;101348.01;;;17.59;33.44
73242;BME280;65659;49.234;-2.094;2023-04-08T10:05:22;101351.45;;;17.21;33.64
73242;BME280;65659;49.234;-2.094;2023-04-08T10:07:48;101348.23;;;17.26;32.96
73242;BME280;65659;49.234;-2.094;2023-04-08T10:10:13;101347.39;;;17.54;32.98
73242;BME280;65659;49.234;-2.094;2023-04-08T10:12:38;101350.06;;;17.88;33.38
73242;BME280;65659;49.234;-2.094;2023-04-08T10:15:23;101347.61;;;17.71;33.06
73242;BME280;65659;49.234;-2.094;2023-04-08T10:17:29;101344.59;;;17.48;33.04
73242;BME280;65659;49.234;-2.094;2023-04-08T10:19:55;101348.35;;;17.71;32.90
73242;BME280;65659;49.234;-2.094;2023-04-08T10:29:37;101340.16;;;17.99;32.42
73242;BME280;65659;49.234;-2.094;2023-04-08T10:32:03;101341.64;;;17.95;32.21
73242;BME280;65659;49.234;-2.094;2023-04-08T10:34:28;101338.24;;;17.96;31.77
73242;BME280;65659;49.234;-2.094;2023-04-08T10:36:55;101336.24;;;18.03;31.95
73242;BME280;65659;49.234;-2.094;2023-04-08T10:39:19;101335.88;;;18.03;31.37
73242;BME280;65659;49.234;-2.094;2023-04-08T10:41:46;101334.56;;;18.03;31.59
73242;BME280;65659;49.234;-2.094;2023-04-08T10:44:16;101330.00;;;18.15;31.45
73242;BME280;65659;49.234;-2.094;2023-04-08T10:46:37;101329.19;;;18.16;30.80
73242;BME280;65659;49.234;-2.094;2023-04-08T10:49:01;101325.08;;;18.29;31.19
73242;BME280;65659;49.234;-2.094;2023-04-08T10:51:30;101327.42;;;18.39;31.64
73242;BME280;65659;49.234;-2.094;2023-04-08T10:53:51;101327.45;;;18.52;31.75
73242;BME280;65659;49.234;-2.094;2023-04-08T10:56:18;101324.88;;;18.64;31.19
73242;BME280;65659;49.234;-2.094;2023-04-08T10:58:49;101323.00;;;18.80;31.15
73242;BME280;65659;49.234;-2.094;2023-04-08T11:01:08;101319.91;;;18.44;30.82
73242;BME280;65659;49.234;-2.094;2023-04-08T11:03:34;101320.36;;;18.38;30.82
73242;BME280;65659;49.234;-2.094;2023-04-08T11:06:00;101313.98;;;18.91;30.80
73242;BME280;65659;49.234;-2.094;2023-04-08T11:08:27;101310.49;;;18.80;30.77
73242;BME280;65659;49.234;-2.094;2023-04-08T11:10:50;101303.59;;;19.26;30.00
73242;BME280;65659;49.234;-2.094;2023-04-08T11:13:15;101303.68;;;19.17;29.98
73242;BME280;65659;49.234;-2.094;2023-04-08T11:15:41;101300.97;;;18.95;29.85
73242;BME280;65659;49.234;-2.094;2023-04-08T11:18:05;101300.15;;;19.27;29.46
73242;BME280;65659;49.234;-2.094;2023-04-08T11:20:32;101298.56;;;19.07;29.17
73242;BME280;65659;49.234;-2.094;2023-04-08T11:22:56;101295.56;;;19.43;29.16
73242;BME280;65659;49.234;-2.094;2023-04-08T11:25:22;101301.16;;;19.28;29.06
73242;BME280;65659;49.234;-2.094;2023-04-08T11:27:48;101302.31;;;19.34;29.08
73242;BME280;65659;49.234;-2.094;2023-04-08T11:30:14;101301.89;;;19.39;28.69
73242;BME280;65659;49.234;-2.094;2023-04-08T11:32:40;101301.45;;;19.52;28.18
73242;BME280;65659;49.234;-2.094;2023-04-08T11:35:06;101305.57;;;19.32;27.71
73242;BME280;65659;49.234;-2.094;2023-04-08T11:37:37;101305.88;;;19.45;27.27
73242;BME280;65659;49.234;-2.094;2023-04-08T11:39:57;101305.85;;;19.64;27.61
73242;BME280;65659;49.234;-2.094;2023-04-08T11:42:27;101307.59;;;19.77;27.35
73242;BME280;65659;49.234;-2.094;2023-04-08T11:44:49;101305.18;;;19.42;27.11
73242;BME280;65659;49.234;-2.094;2023-04-08T11:47:15;101305.37;;;19.61;26.43
73242;BME280;65659;49.234;-2.094;2023-04-08T11:49:44;101309.46;;;19.88;25.94
73242;BME280;65659;49.234;-2.094;2023-04-08T11:52:06;101311.19;;;19.79;26.57
73242;BME280;65659;49.234;-2.094;2023-04-08T11:54:32;101308.65;;;19.78;26.81
73242;BME280;65659;49.234;-2.094;2023-04-08T11:56:59;101306.83;;;19.64;27.00
73242;BME280;65659;49.234;-2.094;2023-04-08T11:59:23;101303.72;;;19.75;26.28
73242;BME280;65659;49.234;-2.094;2023-04-08T12:01:50;101306.63;;;19.99;26.07
73242;BME280;65659;49.234;-2.094;2023-04-08T12:04:15;101303.76;;;20.07;25.94
73242;BME280;65659;49.234;-2.094;2023-04-08T12:06:40;101303.45;;;20.28;25.82
73242;BME280;65659;49.234;-2.094;2023-04-08T12:09:06;101302.97;;;20.38;25.69
73242;BME280;65659;49.234;-2.094;2023-04-08T12:11:32;101295.65;;;20.51;25.02
73242;BME280;65659;49.234;-2.094;2023-04-08T12:13:58;101293.78;;;20.55;24.85
73242;BME280;65659;49.234;-2.094;2023-04-08T12:16:24;101292.87;;;20.36;25.29
73242;BME280;65659;49.234;-2.094;2023-04-08T12:18:50;101283.68;;;20.77;24.58
73242;BME280;65659;49.234;-2.094;2023-04-08T12:21:16;101285.37;;;20.73;24.93
73242;BME280;65659;49.234;-2.094;2023-04-08T12:23:41;101284.13;;;20.59;24.50
73242;BME280;65659;49.234;-2.094;2023-04-08T12:26:07;101278.48;;;20.83;24.31
73242;BME280;65659;49.234;-2.094;2023-04-08T12:28:33;101274.28;;;21.28;24.47
73242;BME280;65659;49.234;-2.094;2023-04-08T12:30:58;101279.09;;;21.38;24.09
73242;BME280;65659;49.234;-2.094;2023-04-08T12:33:24;101278.18;;;21.27;23.25
73242;BME280;65659;49.234;-2.094;2023-04-08T12:35:50;101272.74;;;21.51;22.82
73242;BME280;65659;49.234;-2.094;2023-04-08T12:38:16;101273.03;;;21.98;22.74
73242;BME280;65659;49.234;-2.094;2023-04-08T12:40:41;101263.56;;;21.84;22.76
73242;BME280;65659;49.234;-2.094;2023-04-08T12:43:07;101253.64;;;22.13;22.33
73242;BME280;65659;49.234;-2.094;2023-04-08T12:45:33;101249.25;;;22.31;22.40